Time;durP1;ratioP1;P1;durP2;ratioP2;P2;SDS_P1;SDS_P2;PMS_P1;PMS_P2;Temp;Humidity;BMP_temperature;BMP_pressure;BME280_temperature;BME280_humidity;BME280_pressure;Samples;Min_cycle;Max_cycle;Signal;HPM_P1;HPM_P2
2023/09/12 00:02:01;;;;;;;;;;;;;;;28.53;35.31;100925.84;5070690;28;1927;-26
2023/09/12 00:04:26;;;;;;;;;;;;;;;28.54;35.22;100932.91;5065186;28;1000;-27
2023/09/12 00:06:52;;;;;;;;;;;;;;;28.55;35.23;100931.88;5061473;28;1110;-29
2023/09/12 00:09:17;;;;;;;;;;;;;;;28.44;35.31;100923.25;5067180;28;1098;-29
2023/09/12 00:11:43;;;;;;;;;;;;;;;28.48;35.31;100929.09;5074191;28;1148;-26
2023/09/12 00:14:08;;;;;;;;;;;;;;;28.37;35.25;100925.00;5066832;28;1969;-28
2023/09/12 00:16:34;;;;;;;;;;;;;;;28.44;35.34;100920.53;5067988;28;2078;-30
2023/09/12 00:18:59;;;;;;;;;;;;;;;28.36;35.28;100916.03;5067510;28;1007;-27
2023/09/12 00:21:25;;;;;;;;;;;;;;;28.42;35.29;100916.31;5060192;28;1074;-27
2023/09/12 00:23:50;;;;;;;;;;;;;;;28.35;35.55;100910.81;5067651;28;1066;-27
2023/09/12 00:26:16;;;;;;;;;;;;;;;28.30;35.51;100908.66;5057343;28;992;-29
2023/09/12 00:28:42;;;;;;;;;;;;;;;28.33;35.54;100907.44;5048873;28;1123;-30
2023/09/12 00:31:08;;;;;;;;;;;;;;;28.27;35.35;100903.63;5076979;28;1023;-31
2023/09/12 00:33:33;;;;;;;;;;;;;;;28.35;35.06;100902.69;5077141;28;1093;-27
2023/09/12 00:35:59;;;;;;;;;;;;;;;28.21;35.07;100904.38;5063622;28;1898;-28
2023/09/12 00:38:24;;;;;;;;;;;;;;;28.22;35.54;100909.59;5076873;28;1004;-28
2023/09/12 00:40:50;;;;;;;;;;;;;;;28.13;35.34;100916.09;5062233;28;1324;-26
2023/09/12 00:43:16;;;;;;;;;;;;;;;28.07;35.19;100909.59;5067580;28;1030;-29
2023/09/12 00:45:41;;;;;;;;;;;;;;;28.09;35.31;100909.41;5072591;28;1961;-26
2023/09/12 00:48:08;;;;;;;;;;;;;;;28.21;35.43;100913.31;5076791;28;1031;-27
2023/09/12 00:50:33;;;;;;;;;;;;;;;28.08;35.27;100911.25;5076836;28;1126;-26
2023/09/12 00:52:59;;;;;;;;;;;;;;;28.06;35.41;100915.19;5050234;28;975;-29
2023/09/12 00:55:24;;;;;;;;;;;;;;;28.06;35.53;100912.47;5039031;28;1961;-27
2023/09/12 00:57:51;;;;;;;;;;;;;;;28.07;35.78;100919.56;5047069;28;1347;-27
2023/09/12 01:00:17;;;;;;;;;;;;;;;27.99;35.48;100910.50;5057108;28;1126;-32
2023/09/12 01:02:42;;;;;;;;;;;;;;;28.08;35.30;100915.81;5046497;28;1603;-30
2023/09/12 01:05:08;;;;;;;;;;;;;;;27.98;35.98;100911.53;5074678;28;1178;-31
2023/09/12 01:07:34;;;;;;;;;;;;;;;28.07;35.31;100916.84;5046822;28;1068;-27
2023/09/12 01:10:00;;;;;;;;;;;;;;;27.93;35.72;100905.84;5058217;28;1182;-29
2023/09/12 01:12:25;;;;;;;;;;;;;;;27.96;35.70;100915.47;5058188;28;1007;-27
2023/09/12 01:14:51;;;;;;;;;;;;;;;28.06;35.43;100916.00;5058373;28;1919;-27
2023/09/12 01:17:16;;;;;;;;;;;;;;;28.02;35.46;100913.84;5067771;28;888;-28
2023/09/12 01:19:42;;;;;;;;;;;;;;;28.12;35.26;100922.53;5040000;28;1035;-31
2023/09/12 01:22:10;;;;;;;;;;;;;;;27.99;35.75;100921.31;5041316;28;1921;-29
2023/09/12 01:24:45;;;;;;;;;;;;;;;27.97;35.92;100917.97;5057702;28;1061;-28
2023/09/12 01:27:18;;;;;;;;;;;;;;;28.02;34.86;100913.84;5048450;28;1000;-28
2023/09/12 01:29:44;;;;;;;;;;;;;;;28.07;35.50;100922.25;5051199;28;1027;-29
2023/09/12 01:32:10;;;;;;;;;;;;;;;28.07;35.11;100915.00;5058333;28;1066;-26
2023/09/12 01:34:35;;;;;;;;;;;;;;;28.02;35.90;100922.81;5080128;28;1906;-29
2023/09/12 01:37:02;;;;;;;;;;;;;;;27.95;35.23;100924.56;5073944;28;1166;-29
2023/09/12 01:39:27;;;;;;;;;;;;;;;27.85;36.19;100919.44;5069318;28;1024;-29
2023/09/12 01:41:53;;;;;;;;;;;;;;;27.90;35.31;100917.03;5040019;28;1043;-31
2023/09/12 01:44:18;;;;;;;;;;;;;;;27.99;35.55;100915.09;5038026;28;1028;-27
2023/09/12 01:46:44;;;;;;;;;;;;;;;27.95;35.15;100919.16;5045600;28;2359;-26
2023/09/12 01:49:10;;;;;;;;;;;;;;;28.00;35.22;100924.88;5051349;28;1099;-32
2023/09/12 01:51:35;;;;;;;;;;;;;;;27.88;35.75;100924.47;5038161;28;1075;-31
2023/09/12 01:54:01;;;;;;;;;;;;;;;27.91;35.76;100921.38;5068797;28;1084;-28
2023/09/12 01:56:27;;;;;;;;;;;;;;;27.84;36.21;100924.00;5038062;28;1902;-29
2023/09/12 01:58:52;;;;;;;;;;;;;;;27.88;35.68;100919.06;5041919;28;1218;-32
2023/09/12 02:01:18;;;;;;;;;;;;;;;27.85;36.05;100916.72;5057515;28;1378;-27
2023/09/12 02:03:43;;;;;;;;;;;;;;;27.81;35.87;100918.94;5071094;28;1031;-26
2023/09/12 02:06:09;;;;;;;;;;;;;;;27.92;35.54;100919.53;5040733;28;876;-27
2023/09/12 02:08:34;;;;;;;;;;;;;;;27.74;35.64;100905.34;5042033;28;1223;-31
2023/09/12 02:10:59;;;;;;;;;;;;;;;27.87;35.03;100914.69;5057430;28;1048;-27
2023/09/12 02:13:25;;;;;;;;;;;;;;;27.87;35.68;100912.84;5075844;28;1151;-26
2023/09/12 02:15:58;;;;;;;;;;;;;;;27.86;35.12;100913.03;5067997;28;2271;-28
2023/09/12 02:18:23;;;;;;;;;;;;;;;27.87;36.01;100911.97;5056776;28;1266;-27
2023/09/12 02:20:49;;;;;;;;;;;;;;;27.90;35.37;100908.06;5079917;28;1111;-27
2023/09/12 02:23:14;;;;;;;;;;;;;;;27.89;35.14;100906.41;5061501;28;1554;-27
2023/09/12 02:25:40;;;;;;;;;;;;;;;27.78;35.60;100905.81;5061564;28;1310;-27
2023/09/12 02:28:06;;;;;;;;;;;;;;;27.79;36.02;100904.81;5066128;28;1197;-27
2023/09/12 02:30:31;;;;;;;;;;;;;;;27.85;35.79;100906.75;5079727;28;871;-31
2023/09/12 02:32:57;;;;;;;;;;;;;;;27.78;35.43;100910.41;5074685;28;1131;-26
2023/09/12 02:35:22;;;;;;;;;;;;;;;27.83;35.74;100907.94;5052746;28;1968;-29
2023/09/12 02:37:48;;;;;;;;;;;;;;;28.03;34.94;100910.16;5079489;28;1185;-27
2023/09/12 02:40:14;;;;;;;;;;;;;;;27.98;35.40;100902.56;5061168;28;1210;-28
2023/09/12 02:42:40;;;;;;;;;;;;;;;28.03;35.36;100910.97;5079225;28;1155;-31
2023/09/12 02:45:05;;;;;;;;;;;;;;;27.98;35.75;100914.22;5061113;28;1999;-27
2023/09/12 02:47:31;;;;;;;;;;;;;;;27.93;35.89;100913.94;5065679;28;976;-27
2023/09/12 02:49:56;;;;;;;;;;;;;;;27.96;35.53;100916.28;5060920;28;1162;-31
2023/09/12 02:52:22;;;;;;;;;;;;;;;27.96;35.80;100913.56;5072356;28;1292;-30
2023/09/12 02:54:48;;;;;;;;;;;;;;;27.93;36.06;100915.81;5075950;28;1910;-28
2023/09/12 02:57:13;;;;;;;;;;;;;;;28.09;35.42;100922.91;5078669;28;993;-33
2023/09/12 02:59:39;;;;;;;;;;;;;;;28.08;35.37;100916.66;5050260;28;1095;-29
2023/09/12 03:02:04;;;;;;;;;;;;;;;27.98;36.02;100925.03;5058758;28;1051;-30
2023/09/12 03:04:30;;;;;;;;;;;;;;;28.05;35.68;100919.75;5069314;28;1051;-30
2023/09/12 03:06:56;;;;;;;;;;;;;;;28.16;35.42;100923.84;5060617;28;1285;-30
2023/09/12 03:09:23;;;;;;;;;;;;;;;27.94;36.04;100917.50;5078772;28;1093;-31
2023/09/12 03:11:49;;;;;;;;;;;;;;;27.91;35.65;100925.97;5060515;28;1079;-29
2023/09/12 03:14:15;;;;;;;;;;;;;;;27.97;36.10;100914.41;5078272;28;1902;-28
2023/09/12 03:16:41;;;;;;;;;;;;;;;28.03;35.81;100920.97;5064229;28;2109;-33
2023/09/12 03:19:06;;;;;;;;;;;;;;;28.02;35.96;100919.25;5063015;28;1105;-28
2023/09/12 03:21:32;;;;;;;;;;;;;;;28.10;35.65;100921.88;5043656;28;1316;-28
2023/09/12 03:23:57;;;;;;;;;;;;;;;27.91;36.27;100918.69;5051020;28;1028;-32
2023/09/12 03:26:23;;;;;;;;;;;;;;;27.91;36.14;100918.69;5055901;28;2032;-27
2023/09/12 03:28:50;;;;;;;;;;;;;;;27.77;36.12;100923.06;5051302;28;1162;-28
2023/09/12 03:31:15;;;;;;;;;;;;;;;27.78;36.07;100922.03;5072183;28;1052;-27
2023/09/12 03:33:42;;;;;;;;;;;;;;;27.95;36.16;100924.56;5078111;28;1269;-31
2023/09/12 03:36:07;;;;;;;;;;;;;;;27.86;36.55;100926.53;5053865;28;1906;-30
2023/09/12 03:38:33;;;;;;;;;;;;;;;27.67;36.76;100923.28;5049797;28;1258;-32
2023/09/12 03:40:59;;;;;;;;;;;;;;;27.23;35.93;100925.66;5043958;28;1106;-26
2023/09/12 03:43:24;;;;;;;;;;;;;;;26.88;36.35;100931.41;5058299;28;1107;-27
2023/09/12 03:45:50;;;;;;;;;;;;;;;26.63;36.21;100936.06;5059981;28;2029;-27
2023/09/12 03:48:16;;;;;;;;;;;;;;;26.24;36.15;100935.00;5059696;28;1922;-30
2023/09/12 03:50:42;;;;;;;;;;;;;;;26.18;36.17;100939.22;5046772;28;1370;-27
2023/09/12 03:53:08;;;;;;;;;;;;;;;25.98;36.86;100941.44;5059624;28;1288;-28
2023/09/12 03:55:33;;;;;;;;;;;;;;;25.30;36.59;100935.19;5077183;28;1905;-28
2023/09/12 03:57:58;;;;;;;;;;;;;;;25.60;35.13;100945.50;5049562;28;1306;-29
2023/09/12 04:00:24;;;;;;;;;;;;;;;25.84;35.77;100951.06;5056506;28;1329;-28
2023/09/12 04:02:50;;;;;;;;;;;;;;;26.26;35.42;100962.63;5064264;28;1066;-27
2023/09/12 04:05:16;;;;;;;;;;;;;;;26.31;35.44;100949.47;5059207;28;1513;-30
2023/09/12 04:07:41;;;;;;;;;;;;;;;26.39;35.47;100954.88;5059093;28;888;-30
2023/09/12 04:10:07;;;;;;;;;;;;;;;26.47;35.34;100954.03;5077919;28;1004;-31
2023/09/12 04:12:32;;;;;;;;;;;;;;;26.41;35.47;100957.38;5059546;28;1370;-28
2023/09/12 04:14:58;;;;;;;;;;;;;;;26.50;34.97;100955.53;5053666;28;2325;-27
2023/09/12 04:17:23;;;;;;;;;;;;;;;26.57;35.17;100967.31;5059154;28;1074;-33
2023/09/12 04:19:49;;;;;;;;;;;;;;;26.60;35.04;100966.97;5058545;28;2120;-29
2023/09/12 04:22:14;;;;;;;;;;;;;;;26.62;34.96;100966.78;5058856;28;1392;-28
2023/09/12 04:24:40;;;;;;;;;;;;;;;26.57;35.11;100972.69;5059603;28;1332;-31
2023/09/12 04:27:06;;;;;;;;;;;;;;;26.70;35.52;100965.91;5077212;28;1102;-30
2023/09/12 04:29:35;;;;;;;;;;;;;;;26.76;35.50;100960.63;5058957;28;1399;-29
2023/09/12 04:32:03;;;;;;;;;;;;;;;26.59;35.75;100962.56;5055280;28;1212;-29
2023/09/12 04:34:28;;;;;;;;;;;;;;;26.46;36.06;100965.81;5058907;28;1902;-27
2023/09/12 04:36:54;;;;;;;;;;;;;;;26.36;36.46;100965.19;5058715;28;1207;-27
2023/09/12 04:39:20;;;;;;;;;;;;;;;26.33;36.54;100954.72;5057809;28;1350;-27
2023/09/12 04:41:46;;;;;;;;;;;;;;;26.41;36.60;100957.38;5058548;28;1198;-33
2023/09/12 04:44:11;;;;;;;;;;;;;;;26.39;36.62;100957.56;5058703;28;1317;-31
2023/09/12 04:46:37;;;;;;;;;;;;;;;26.67;36.50;100950.06;5058736;28;2525;-27
2023/09/12 04:49:03;;;;;;;;;;;;;;;26.65;36.87;100958.34;5042674;28;1228;-30
2023/09/12 04:51:29;;;;;;;;;;;;;;;26.63;36.89;100965.75;5047806;28;1293;-31
2023/09/12 04:53:54;;;;;;;;;;;;;;;26.68;36.74;100966.06;5076337;28;1050;-26
2023/09/12 04:56:20;;;;;;;;;;;;;;;26.73;36.65;100962.84;5058629;28;1977;-29
2023/09/12 04:58:46;;;;;;;;;;;;;;;26.85;36.48;100963.31;5058322;28;1391;-27
2023/09/12 05:01:11;;;;;;;;;;;;;;;26.60;37.13;100964.25;5067156;28;1578;-29
2023/09/12 05:03:37;;;;;;;;;;;;;;;26.95;36.94;100960.38;5072331;28;1135;-29
2023/09/12 05:06:03;;;;;;;;;;;;;;;26.89;36.71;100961.94;5075567;28;1020;-29
2023/09/12 05:08:29;;;;;;;;;;;;;;;27.01;36.54;100965.06;5058515;28;1245;-30
2023/09/12 05:10:55;;;;;;;;;;;;;;;27.34;35.60;100969.47;5076396;28;1086;-28
2023/09/12 05:13:20;;;;;;;;;;;;;;;27.07;35.89;100974.38;5058120;28;1123;-29
2023/09/12 05:15:46;;;;;;;;;;;;;;;27.04;36.36;100975.56;5074560;28;2674;-29
2023/09/12 05:18:12;;;;;;;;;;;;;;;26.86;35.99;100967.69;5076449;28;1213;-29
2023/09/12 05:20:37;;;;;;;;;;;;;;;26.73;36.47;100971.78;5076252;28;1047;-29
2023/09/12 05:23:03;;;;;;;;;;;;;;;26.87;36.67;100972.06;5058382;28;1181;-29
2023/09/12 05:25:28;;;;;;;;;;;;;;;27.08;36.20;100982.28;5058856;28;1411;-29
2023/09/12 05:27:54;;;;;;;;;;;;;;;27.14;35.92;100978.88;5076224;28;1071;-32
2023/09/12 05:30:20;;;;;;;;;;;;;;;26.63;37.47;100976.53;5057785;28;1123;-27
2023/09/12 05:32:45;;;;;;;;;;;;;;;26.34;35.54;100976.13;5053417;28;1257;-31
2023/09/12 05:35:11;;;;;;;;;;;;;;;26.33;36.60;100984.38;5076219;28;1918;-28
2023/09/12 05:37:36;;;;;;;;;;;;;;;26.49;36.82;100983.53;5072246;28;1189;-29
2023/09/12 05:40:03;;;;;;;;;;;;;;;26.73;36.97;100976.34;5058338;28;1122;-31
2023/09/12 05:42:28;;;;;;;;;;;;;;;26.81;36.74;100980.88;5057880;28;1143;-28
2023/09/12 05:44:54;;;;;;;;;;;;;;;26.86;36.62;100968.53;5067399;28;1058;-28
2023/09/12 05:47:20;;;;;;;;;;;;;;;27.05;36.59;100974.53;5052146;28;1166;-27
2023/09/12 05:49:46;;;;;;;;;;;;;;;26.17;34.73;100975.28;5042877;28;1234;-28
2023/09/12 05:52:11;;;;;;;;;;;;;;;26.59;35.29;100978.75;5075327;28;1025;-29
2023/09/12 05:54:37;;;;;;;;;;;;;;;26.88;35.84;100977.28;5056983;28;1982;-28
2023/09/12 05:57:03;;;;;;;;;;;;;;;27.09;35.69;100969.63;5056639;28;1122;-31
2023/09/12 05:59:29;;;;;;;;;;;;;;;27.14;35.78;100976.16;5065695;28;1138;-29
2023/09/12 06:01:55;;;;;;;;;;;;;;;27.22;36.15;100972.59;5040800;28;1278;-28
2023/09/12 06:04:21;;;;;;;;;;;;;;;27.23;36.15;100973.41;5038308;28;1326;-29
2023/09/12 06:06:46;;;;;;;;;;;;;;;27.32;36.04;100982.31;5059952;28;1035;-30
2023/09/12 06:09:12;;;;;;;;;;;;;;;27.29;35.98;100980.81;5062471;28;1058;-28
2023/09/12 06:11:37;;;;;;;;;;;;;;;27.24;36.26;100985.91;5076163;28;1143;-26
2023/09/12 06:14:03;;;;;;;;;;;;;;;27.41;36.11;100980.41;5075365;28;1084;-26
2023/09/12 06:16:29;;;;;;;;;;;;;;;27.45;36.00;100981.72;5064197;28;1973;-29
2023/09/12 06:18:55;;;;;;;;;;;;;;;27.60;35.89;100981.78;5073470;28;1084;-30
2023/09/12 06:21:21;;;;;;;;;;;;;;;27.67;35.86;100990.84;5064488;28;1103;-30
2023/09/12 06:23:47;;;;;;;;;;;;;;;27.68;35.60;100995.25;5055762;28;1441;-29
2023/09/12 06:26:12;;;;;;;;;;;;;;;27.86;35.63;101003.06;5058698;28;1042;-29
2023/09/12 06:28:38;;;;;;;;;;;;;;;27.85;35.67;101000.53;5066806;28;1154;-29
2023/09/12 06:31:04;;;;;;;;;;;;;;;27.83;35.49;100995.31;5059757;28;1155;-26
2023/09/12 06:33:29;;;;;;;;;;;;;;;27.88;35.50;100992.06;5072742;28;1089;-27
2023/09/12 06:35:55;;;;;;;;;;;;;;;27.88;35.73;101002.88;5056833;28;1963;-29
2023/09/12 06:38:21;;;;;;;;;;;;;;;27.81;35.89;101001.94;5057866;28;1019;-33
2023/09/12 06:40:47;;;;;;;;;;;;;;;28.01;35.46;100999.53;5055732;28;1104;-32
2023/09/12 06:43:12;;;;;;;;;;;;;;;27.94;35.81;100999.47;5061098;28;1182;-27
2023/09/12 06:45:39;;;;;;;;;;;;;;;27.95;35.81;100995.72;5060456;28;1138;-28
2023/09/12 06:48:05;;;;;;;;;;;;;;;28.17;35.15;101017.50;5064225;28;1322;-28
2023/09/12 06:50:31;;;;;;;;;;;;;;;27.98;35.64;101010.72;5060370;28;1219;-26
2023/09/12 06:52:56;;;;;;;;;;;;;;;28.01;35.72;101010.34;5072638;28;1133;-30
2023/09/12 06:55:22;;;;;;;;;;;;;;;28.07;35.79;101012.34;5074618;28;1987;-27
2023/09/12 06:57:47;;;;;;;;;;;;;;;28.07;35.29;101012.34;5061729;28;1149;-29
2023/09/12 07:00:13;;;;;;;;;;;;;;;28.18;35.03;101011.03;5074978;28;1185;-28
2023/09/12 07:02:39;;;;;;;;;;;;;;;28.19;35.27;101014.59;5078646;28;1225;-30
2023/09/12 07:05:05;;;;;;;;;;;;;;;28.19;35.43;101018.16;5067978;28;1027;-29
2023/09/12 07:07:30;;;;;;;;;;;;;;;28.19;35.50;101017.31;5061364;28;1399;-27
2023/09/12 07:09:56;;;;;;;;;;;;;;;28.19;35.73;101020.88;5059764;28;1121;-28
2023/09/12 07:12:22;;;;;;;;;;;;;;;28.18;36.03;101021.88;5072492;28;1043;-28
2023/09/12 07:14:47;;;;;;;;;;;;;;;28.13;36.09;101023.47;5058865;28;1910;-26
2023/09/12 07:17:13;;;;;;;;;;;;;;;28.20;35.83;101030.66;5061355;28;1115;-29
2023/09/12 07:19:38;;;;;;;;;;;;;;;28.30;35.52;101033.09;5075402;28;1007;-27
2023/09/12 07:22:04;;;;;;;;;;;;;;;28.27;35.29;101022.63;5076390;28;1054;-26
2023/09/12 07:24:29;;;;;;;;;;;;;;;28.41;35.05;101029.09;5058863;28;1039;-28
2023/09/12 07:26:55;;;;;;;;;;;;;;;28.49;35.00;101028.19;5074118;28;1130;-26
2023/09/12 07:29:20;;;;;;;;;;;;;;;28.50;35.27;101026.31;5078326;28;1110;-27
2023/09/12 07:31:46;;;;;;;;;;;;;;;28.55;34.81;101026.59;5075983;28;1079;-26
2023/09/12 07:34:14;;;;;;;;;;;;;;;28.44;35.15;101023.34;5067309;28;1095;-27
2023/09/12 07:36:40;;;;;;;;;;;;;;;28.50;35.10;101020.91;5062578;28;1988;-31
2023/09/12 07:39:06;;;;;;;;;;;;;;;28.69;34.71;101028.50;5058639;28;1170;-31
2023/09/12 07:41:32;;;;;;;;;;;;;;;28.99;34.18;101026.81;5066359;28;1059;-28
2023/09/12 07:43:57;;;;;;;;;;;;;;;28.84;34.44;101030.34;5076717;28;1141;-28
2023/09/12 07:46:23;;;;;;;;;;;;;;;28.98;34.21;101030.56;5066511;28;1087;-26
2023/09/12 07:48:48;;;;;;;;;;;;;;;29.28;33.64;101036.72;5077071;28;1155;-27
2023/09/12 07:51:14;;;;;;;;;;;;;;;29.39;33.30;101026.44;5058586;28;1102;-26
2023/09/12 07:53:40;;;;;;;;;;;;;;;29.11;33.68;101028.00;5058628;28;1159;-28
2023/09/12 07:56:06;;;;;;;;;;;;;;;29.06;33.76;101020.44;5065118;28;1914;-26
2023/09/12 07:58:31;;;;;;;;;;;;;;;29.04;34.22;101027.94;5078185;28;1063;-29
2023/09/12 08:00:57;;;;;;;;;;;;;;;28.73;34.58;101020.81;5070301;28;1095;-27
2023/09/12 08:03:22;;;;;;;;;;;;;;;28.84;34.29;101023.03;5058837;28;1015;-30
2023/09/12 08:05:55;;;;;;;;;;;;;;;28.76;34.55;101025.84;5060489;28;1039;-29
2023/09/12 08:08:21;;;;;;;;;;;;;;;28.86;34.30;101025.59;5066579;28;1118;-28
2023/09/12 08:10:46;;;;;;;;;;;;;;;29.05;33.72;101020.63;5077952;28;987;-26
2023/09/12 08:13:12;;;;;;;;;;;;;;;29.39;33.11;101021.00;5078013;28;1122;-28
2023/09/12 08:15:37;;;;;;;;;;;;;;;29.20;32.63;101023.28;5060110;28;1977;-28
2023/09/12 08:18:04;;;;;;;;;;;;;;;29.74;31.89;101026.59;5057617;28;1051;-29
2023/09/12 08:20:29;;;;;;;;;;;;;;;29.67;32.28;101031.97;5066964;28;1115;-28
2023/09/12 08:22:55;;;;;;;;;;;;;;;29.72;32.10;101023.25;5077717;28;1066;-31
2023/09/12 08:25:20;;;;;;;;;;;;;;;29.73;32.21;101026.81;5073190;28;1020;-28
2023/09/12 08:27:46;;;;;;;;;;;;;;;29.48;32.86;101030.69;5068565;28;1051;-26
2023/09/12 08:30:12;;;;;;;;;;;;;;;29.85;31.85;101030.66;5077710;28;1139;-27
2023/09/12 08:32:39;;;;;;;;;;;;;;;29.83;32.06;101032.72;5076923;28;1058;-30
2023/09/12 08:35:06;;;;;;;;;;;;;;;29.80;32.01;101024.97;5072755;28;1973;-26
2023/09/12 08:37:31;;;;;;;;;;;;;;;29.26;33.01;101024.41;5056885;28;1162;-29
2023/09/12 08:39:59;;;;;;;;;;;;;;;29.01;33.94;101027.47;5057335;28;1082;-30
2023/09/12 08:42:24;;;;;;;;;;;;;;;29.31;33.22;101020.09;5070514;28;1074;-32
2023/09/12 08:44:50;;;;;;;;;;;;;;;28.94;34.11;101032.75;5067803;28;860;-30
2023/09/12 08:47:15;;;;;;;;;;;;;;;28.99;34.12;101029.50;5075185;28;1086;-31
2023/09/12 08:49:43;;;;;;;;;;;;;;;29.47;33.30;101031.72;5039102;28;1202;-28
2023/09/12 08:52:09;;;;;;;;;;;;;;;29.29;33.58;101027.59;5057028;28;1170;-32
2023/09/12 08:54:35;;;;;;;;;;;;;;;29.32;33.48;101020.94;5057115;28;1975;-30
2023/09/12 08:57:04;;;;;;;;;;;;;;;29.14;33.90;101027.63;5050272;28;1163;-28
2023/09/12 08:59:32;;;;;;;;;;;;;;;29.17;33.97;101027.25;5067658;28;1113;-28
2023/09/12 09:01:58;;;;;;;;;;;;;;;29.15;33.94;101029.28;5050878;28;1186;-28
2023/09/12 09:04:26;;;;;;;;;;;;;;;29.26;33.83;101024.41;5066612;28;1083;-27
2023/09/12 09:06:52;;;;;;;;;;;;;;;29.49;33.70;101020.69;5042129;28;1277;-29
2023/09/12 09:09:18;;;;;;;;;;;;;;;29.34;33.83;101027.81;5058678;28;918;-30
2023/09/12 09:11:43;;;;;;;;;;;;;;;29.32;32.81;101029.06;5042295;28;1175;-28
2023/09/12 09:14:09;;;;;;;;;;;;;;;29.52;33.11;101021.16;5070141;28;1253;-28
2023/09/12 09:16:35;;;;;;;;;;;;;;;29.57;33.40;101024.13;5065642;28;1913;-29
2023/09/12 09:19:02;;;;;;;;;;;;;;;29.46;33.83;101030.88;5075327;28;1016;-30
2023/09/12 09:21:31;;;;;;;;;;;;;;;29.51;33.84;101027.59;5075848;28;837;-34
2023/09/12 09:24:00;;;;;;;;;;;;;;;29.39;33.94;101026.44;5063032;28;1265;-26
2023/09/12 09:26:39;;;;;;;;;;;;;;;29.54;33.95;101029.09;5076192;28;1099;-28
2023/09/12 09:29:06;;;;;;;;;;;;;;;29.66;33.76;101032.16;5064433;28;1175;-28
2023/09/12 09:31:32;;;;;;;;;;;;;;;29.71;33.71;101032.41;5062754;28;1118;-31
2023/09/12 09:33:58;;;;;;;;;;;;;;;29.74;33.68;101025.75;5075804;28;902;-27
2023/09/12 09:36:23;;;;;;;;;;;;;;;29.84;33.63;101030.84;5057556;28;1905;-29
2023/09/12 09:38:49;;;;;;;;;;;;;;;29.78;33.40;101025.16;5068194;28;1043;-31
2023/09/12 09:41:15;;;;;;;;;;;;;;;29.69;33.14;101027.19;5075789;28;1221;-28
2023/09/12 09:43:40;;;;;;;;;;;;;;;29.98;32.95;101038.06;5046034;28;1459;-27
2023/09/12 09:46:06;;;;;;;;;;;;;;;30.00;33.19;101027.00;5063308;28;1110;-30
2023/09/12 09:48:32;;;;;;;;;;;;;;;29.87;33.40;101034.00;5062417;28;1115;-29
2023/09/12 09:51:00;;;;;;;;;;;;;;;29.84;33.43;101039.84;5062153;28;1114;-28
2023/09/12 09:53:26;;;;;;;;;;;;;;;29.94;33.31;101039.50;5056195;28;1058;-30
2023/09/12 09:55:52;;;;;;;;;;;;;;;29.93;33.38;101035.94;5069982;28;1971;-29
2023/09/12 09:58:17;;;;;;;;;;;;;;;29.89;33.31;101045.53;5050027;28;1024;-28
2023/09/12 10:00:43;;;;;;;;;;;;;;;29.96;33.29;101033.88;5056393;28;1117;-31
2023/09/12 10:03:08;;;;;;;;;;;;;;;30.21;32.96;101030.75;5063764;28;1101;-29
2023/09/12 10:05:34;;;;;;;;;;;;;;;25.44;43.13;101033.34;5038100;28;1052;-27
2023/09/12 10:08:00;;;;;;;;;;;;;;;23.62;47.70;101016.88;5045347;28;1083;-26
2023/09/12 10:10:26;;;;;;;;;;;;;;;22.93;49.36;101018.09;5045553;28;1110;-29
2023/09/12 10:12:53;;;;;;;;;;;;;;;22.53;50.26;101018.22;5065663;28;1165;-30
2023/09/12 10:15:19;;;;;;;;;;;;;;;22.26;51.13;101017.13;5074044;28;1971;-27
2023/09/12 10:17:45;;;;;;;;;;;;;;;22.16;51.51;101025.19;5063532;28;1166;-32
2023/09/12 10:20:21;;;;;;;;;;;;;;;22.13;51.76;101026.34;5062086;28;1103;-29
2023/09/12 10:22:52;;;;;;;;;;;;;;;23.85;47.85;101020.81;5042540;28;1087;-28
2023/09/12 10:25:17;;;;;;;;;;;;;;;27.35;39.29;101019.78;5047334;28;1282;-27
2023/09/12 10:27:43;;;;;;;;;;;;;;;28.60;36.52;101022.31;5073898;28;1194;-29
2023/09/12 10:30:08;;;;;;;;;;;;;;;29.24;35.19;101026.47;5062935;28;1273;-27
2023/09/12 10:32:35;;;;;;;;;;;;;;;29.40;34.68;101023.53;5061012;28;1186;-31
2023/09/12 10:35:01;;;;;;;;;;;;;;;29.64;34.27;101020.66;5068360;28;1989;-27
2023/09/12 10:37:26;;;;;;;;;;;;;;;29.86;33.83;101028.78;5054770;28;1190;-26
2023/09/12 10:39:53;;;;;;;;;;;;;;;30.02;33.25;101023.09;5067238;28;1348;-31
2023/09/12 10:42:18;;;;;;;;;;;;;;;30.06;33.33;101026.25;5061632;28;1436;-30
2023/09/12 10:44:44;;;;;;;;;;;;;;;30.16;33.31;101023.19;5057264;28;1419;-33
2023/09/12 10:47:10;;;;;;;;;;;;;;;30.45;32.71;101021.31;5067257;28;1024;-31
2023/09/12 10:49:36;;;;;;;;;;;;;;;30.49;32.95;101019.03;5064219;28;1111;-28
2023/09/12 10:52:01;;;;;;;;;;;;;;;26.22;41.35;101012.53;5061547;28;1091;-29
2023/09/12 10:54:39;;;;;;;;;;;;;;;23.80;47.11;101015.06;5055907;28;1062;-29
2023/09/12 10:57:08;;;;;;;;;;;;;;;22.97;49.12;101008.78;5070585;28;1059;-28
2023/09/12 10:59:36;;;;;;;;;;;;;;;22.51;50.14;101001.41;5078674;28;1101;-31
2023/09/12 11:02:20;;;;;;;;;;;;;;;22.19;50.94;100998.09;5058660;28;1244;-29
2023/09/12 11:04:46;;;;;;;;;;;;;;;22.13;51.07;101002.22;5072587;28;1047;-31
2023/09/12 11:07:31;;;;;;;;;;;;;;;22.16;51.29;100995.72;5059341;28;1122;-33
2023/09/12 11:10:15;;;;;;;;;;;;;;;22.23;54.28;100994.16;5071754;28;1205;-30
2023/09/12 11:12:41;;;;;;;;;;;;;;;26.53;41.76;101001.88;5073899;28;1088;-31
2023/09/12 11:15:08;;;;;;;;;;;;;;;27.69;40.44;100996.97;5070791;28;1953;-29
2023/09/12 11:17:57;;;;;;;;;;;;;;;28.74;36.45;101006.25;5074129;28;996;-31
2023/09/12 11:20:24;;;;;;;;;;;;;;;24.50;44.82;101001.81;5067023;28;1819;-30
2023/09/12 11:22:50;;;;;;;;;;;;;;;22.45;49.35;100994.81;5072042;28;1198;-30
2023/09/12 11:25:27;;;;;;;;;;;;;;;21.87;50.58;100984.03;5070411;28;1035;-30
2023/09/12 11:27:53;;;;;;;;;;;;;;;21.70;50.99;100992.75;5078800;28;1027;-31
2023/09/12 11:30:22;;;;;;;;;;;;;;;21.69;51.26;100983.03;5079239;28;1084;-30
2023/09/12 11:32:48;;;;;;;;;;;;;;;21.79;53.34;100989.25;5070484;28;1119;-29
2023/09/12 11:35:14;;;;;;;;;;;;;;;25.74;41.69;100981.72;5060235;28;1976;-32
2023/09/12 11:37:39;;;;;;;;;;;;;;;23.23;45.57;100975.84;5061313;28;1051;-29
2023/09/12 11:40:11;;;;;;;;;;;;;;;21.96;48.41;100978.81;5066161;28;1180;-30
2023/09/12 11:42:39;;;;;;;;;;;;;;;24.70;43.63;100980.06;5078108;28;1044;-30
2023/09/12 11:45:07;;;;;;;;;;;;;;;24.75;41.66;100966.97;5063994;28;1265;-29
2023/09/12 11:47:33;;;;;;;;;;;;;;;22.27;48.71;100967.94;5077379;28;1098;-28
2023/09/12 11:49:59;;;;;;;;;;;;;;;21.62;50.61;100974.72;5060351;28;1391;-33
2023/09/12 11:52:24;;;;;;;;;;;;;;;21.41;51.28;100965.84;5078043;28;1417;-28
2023/09/12 11:54:50;;;;;;;;;;;;;;;21.25;52.07;100969.03;5077230;28;1973;-29
2023/09/12 11:57:15;;;;;;;;;;;;;;;22.70;52.18;100967.53;5067037;28;1125;-30
2023/09/12 11:59:43;;;;;;;;;;;;;;;26.49;39.34;100957.38;5058806;28;1027;-27
2023/09/12 12:02:08;;;;;;;;;;;;;;;27.88;36.19;100959.59;5057772;28;1183;-29
2023/09/12 12:04:34;;;;;;;;;;;;;;;28.20;39.17;100973.84;5064009;28;1118;-31
2023/09/12 12:07:00;;;;;;;;;;;;;;;28.68;33.47;100969.09;5052534;28;1011;-31
2023/09/12 12:09:26;;;;;;;;;;;;;;;28.37;37.05;100968.28;5042159;28;1091;-29
2023/09/12 12:11:51;;;;;;;;;;;;;;;23.34;46.08;100961.34;5078313;28;1206;-30
2023/09/12 12:14:17;;;;;;;;;;;;;;;22.11;49.65;100958.66;5068578;28;1146;-27
2023/09/12 12:16:43;;;;;;;;;;;;;;;25.03;43.89;100960.53;5073743;28;1975;-29
2023/09/12 12:19:09;;;;;;;;;;;;;;;24.76;42.42;100957.03;5072979;28;1095;-30
2023/09/12 12:21:34;;;;;;;;;;;;;;;22.53;48.70;100947.66;5076427;28;1027;-26
2023/09/12 12:24:00;;;;;;;;;;;;;;;25.82;42.22;100963.88;5067083;28;1107;-29
2023/09/12 12:26:26;;;;;;;;;;;;;;;24.01;44.91;100956.59;5057469;28;1169;-30
2023/09/12 12:28:52;;;;;;;;;;;;;;;22.37;50.10;100958.00;5057677;28;1031;-30
2023/09/12 12:31:17;;;;;;;;;;;;;;;25.85;42.11;100959.00;5057044;28;1116;-29
2023/09/12 12:33:49;;;;;;;;;;;;;;;24.10;44.99;100952.97;5060711;28;1091;-32
2023/09/12 12:36:14;;;;;;;;;;;;;;;24.85;41.63;100948.00;5076608;28;1913;-28
2023/09/12 12:38:43;;;;;;;;;;;;;;;27.15;37.03;100941.91;5077144;28;1119;-30
2023/09/12 12:41:08;;;;;;;;;;;;;;;22.94;46.29;100932.09;5059659;28;1007;-30
2023/09/12 12:43:34;;;;;;;;;;;;;;;26.18;40.09;100947.31;5066288;28;1118;-28